Time;durP1;ratioP1;P1;durP2;ratioP2;P2;SDS_P1;SDS_P2;PMS_P1;PMS_P2;Temp;Humidity;BMP_temperature;BMP_pressure;BME280_temperature;BME280_humidity;BME280_pressure;Samples;Min_cycle;Max_cycle;Signal;HPM_P1;HPM_P2
2022/12/10 00:01:06;;;;;;;24.35;14.50;;;;;;;16.86;100.00;101506.88;2100369;28;20476;-72
2022/12/10 00:02:29;;;;;;;26.83;14.88;;;;;;;16.84;100.00;101505.06;2101288;28;20064;-72
2022/12/10 00:03:52;;;;;;;25.95;14.65;;;;;;;16.81;100.00;101502.38;2107899;28;20404;-72
2022/12/10 00:05:15;;;;;;;27.00;14.68;;;;;;;16.81;100.00;101503.28;2094292;28;20045;-72
2022/12/10 00:06:38;;;;;;;27.10;14.68;;;;;;;16.81;100.00;101505.06;2093661;28;20049;-73
2022/12/10 00:08:00;;;;;;;32.45;15.88;;;;;;;16.80;100.00;101508.63;2105763;28;20053;-73
2022/12/10 00:09:22;;;;;;;28.58;14.63;;;;;;;16.79;100.00;101499.75;2104970;28;20400;-73
2022/12/10 00:10:44;;;;;;;22.83;14.60;;;;;;;16.80;100.00;101508.63;2096386;28;20515;-73
2022/12/10 00:12:06;;;;;;;27.92;14.80;;;;;;;16.81;100.00;101510.38;2099758;28;20117;-72
2022/12/10 00:13:27;;;;;;;29.73;15.80;;;;;;;16.83;100.00;101508.63;2104680;28;20096;-72
2022/12/10 00:14:50;;;;;;;37.58;16.67;;;;;;;16.85;100.00;101514.88;2093095;28;20045;-73
2022/12/10 00:16:14;;;;;;;28.45;15.65;;;;;;;16.88;100.00;101513.06;2099644;28;20102;-73
2022/12/10 00:17:37;;;;;;;33.03;15.70;;;;;;;16.90;100.00;101513.09;2094378;28;20082;-72
2022/12/10 00:18:58;;;;;;;24.58;13.82;;;;;;;16.91;100.00;101514.88;2085803;28;20579;-73
2022/12/10 00:20:20;;;;;;;27.67;15.40;;;;;;;16.90;100.00;101515.75;2095786;28;20054;-73
2022/12/10 00:21:45;;;;;;;33.53;14.75;;;;;;;16.90;100.00;101510.41;2102283;28;20138;-72
2022/12/10 00:23:06;;;;;;;29.23;15.23;;;;;;;16.91;100.00;101504.19;2102424;28;20113;-73
2022/12/10 00:24:28;;;;;;;24.58;13.40;;;;;;;16.92;100.00;101506.00;2091447;28;20088;-73
2022/12/10 00:25:50;;;;;;;23.48;14.88;;;;;;;16.92;100.00;101509.53;2091628;28;20040;-72
2022/12/10 00:27:12;;;;;;;30.85;15.30;;;;;;;16.92;100.00;101506.00;2101708;28;20133;-73
2022/12/10 00:28:34;;;;;;;29.77;16.05;;;;;;;16.89;100.00;101496.19;2102551;28;20044;-74
2022/12/10 00:29:57;;;;;;;35.10;16.45;;;;;;;16.88;100.00;101505.06;2096521;28;20511;-73
2022/12/10 00:31:21;;;;;;;28.13;16.23;;;;;;;16.90;100.00;101497.97;2082615;28;20565;-72
2022/12/10 00:32:43;;;;;;;29.88;15.00;;;;;;;16.89;100.00;101492.63;2089854;28;20470;-72
2022/12/10 00:34:07;;;;;;;25.75;15.55;;;;;;;16.87;100.00;101500.63;2099136;28;20044;-73
2022/12/10 00:35:29;;;;;;;33.58;15.95;;;;;;;16.85;100.00;101501.53;2094276;28;20044;-73
2022/12/10 00:36:51;;;;;;;28.40;14.20;;;;;;;16.83;100.00;101501.53;2099479;28;20143;-73
2022/12/10 00:38:12;;;;;;;25.77;14.65;;;;;;;16.83;100.00;101503.28;2093782;28;20060;-72
2022/12/10 00:39:35;;;;;;;25.55;14.35;;;;;;;16.85;100.00;101506.88;2091108;28;20044;-73
2022/12/10 00:40:56;;;;;;;26.95;14.63;;;;;;;16.85;100.00;101510.41;2101462;28;20056;-72
2022/12/10 00:42:18;;;;;;;28.92;15.80;;;;;;;16.85;100.00;101512.19;2092448;28;20049;-72
2022/12/10 00:43:41;;;;;;;26.42;14.85;;;;;;;16.85;100.00;101514.88;2091135;28;20492;-72
2022/12/10 00:45:04;;;;;;;23.80;14.98;;;;;;;16.85;100.00;101512.19;2091133;28;20427;-72
2022/12/10 00:46:28;;;;;;;29.67;15.10;;;;;;;16.85;100.00;101512.19;2085555;28;20523;-72
2022/12/10 00:47:50;;;;;;;25.58;14.07;;;;;;;16.83;100.00;101512.19;2090218;28;20043;-72
2022/12/10 00:49:13;;;;;;;28.92;14.98;;;;;;;16.83;100.00;101519.28;2093869;28;20056;-72
2022/12/10 00:50:34;;;;;;;22.75;13.32;;;;;;;16.84;100.00;101511.31;2089739;28;20044;-72
2022/12/10 00:51:57;;;;;;;22.92;13.77;;;;;;;16.84;100.00;101516.63;2096065;28;20052;-72
2022/12/10 00:53:18;;;;;;;26.52;15.13;;;;;;;16.84;100.00;101513.06;2086822;28;20049;-72
2022/12/10 00:54:40;;;;;;;30.45;14.30;;;;;;;16.82;100.00;101515.72;2099680;28;20134;-72
2022/12/10 00:56:03;;;;;;;26.40;15.40;;;;;;;16.79;100.00;101518.41;2100363;28;20036;-72
2022/12/10 00:57:25;;;;;;;25.35;14.27;;;;;;;16.76;100.00;101504.16;2102286;28;20055;-71
2022/12/10 00:58:47;;;;;;;32.67;16.20;;;;;;;16.74;100.00;101498.81;2092967;28;20029;-72
2022/12/10 01:00:10;;;;;;;;;;;;;;;16.66;100.00;101498.84;2092837;28;20110;-73
2022/12/10 01:01:33;;;;;;;;;;;;;;;16.60;100.00;101496.16;2098036;28;20532;-74
2022/12/10 01:02:56;;;;;;;25.20;13.40;;;;;;;16.62;100.00;101497.03;2093596;28;20399;-73
2022/12/10 01:04:19;;;;;;;29.42;13.77;;;;;;;16.63;100.00;101504.13;2093860;28;20523;-73
2022/12/10 01:05:41;;;;;;;23.90;13.30;;;;;;;16.62;100.00;101497.03;2099743;28;20052;-74
2022/12/10 01:07:03;;;;;;;25.25;13.40;;;;;;;16.65;100.00;101493.50;2091881;28;20037;-74
2022/12/10 01:08:25;;;;;;;31.08;13.88;;;;;;;16.66;100.00;101490.84;2090770;28;20262;-74
2022/12/10 01:09:47;;;;;;;28.77;14.48;;;;;;;16.67;100.00;101489.06;2101754;28;20056;-73
2022/12/10 01:11:09;;;;;;;24.27;14.20;;;;;;;16.67;100.00;101481.06;2100917;28;20523;-74
2022/12/10 01:12:32;;;;;;;28.45;13.27;;;;;;;16.69;100.00;101484.59;2093873;28;20424;-73
2022/12/10 01:13:53;;;;;;;27.85;13.00;;;;;;;16.70;100.00;101481.94;2094850;28;20049;-73
2022/12/10 01:15:15;;;;;;;25.20;13.25;;;;;;;16.71;100.00;101494.38;2096677;28;20056;-73
2022/12/10 01:16:41;;;;;;;26.55;13.30;;;;;;;16.72;100.00;101489.94;2093740;28;20072;-73
2022/12/10 01:18:04;;;;;;;28.38;12.95;;;;;;;16.72;100.00;101493.50;2099296;28;20080;-74
2022/12/10 01:19:27;;;;;;;29.67;13.77;;;;;;;16.74;100.00;101493.50;2085379;28;20045;-73
2022/12/10 01:20:48;;;;;;;25.05;14.07;;;;;;;16.74;100.00;101497.03;2089602;28;20435;-73
2022/12/10 01:22:10;;;;;;;23.50;13.75;;;;;;;16.77;100.00;101495.28;2099215;28;20063;-73
2022/12/10 01:23:33;;;;;;;29.50;14.35;;;;;;;16.78;100.00;101497.97;2101703;28;20044;-74
2022/12/10 01:24:55;;;;;;;26.00;13.00;;;;;;;16.80;100.00;101489.97;2093564;28;20049;-73
2022/12/10 01:26:18;;;;;;;21.58;13.40;;;;;;;16.79;100.00;101474.84;2089459;28;20132;-74
2022/12/10 01:27:41;;;;;;;27.65;12.57;;;;;;;16.80;100.00;101476.63;2091272;28;20049;-74
2022/12/10 01:29:05;;;;;;;26.98;14.00;;;;;;;16.83;100.00;101474.84;2083098;28;20065;-74
2022/12/10 01:30:27;;;;;;;25.20;13.63;;;;;;;16.84;100.00;101471.28;2096479;28;20052;-73
2022/12/10 01:31:52;;;;;;;21.67;11.85;;;;;;;16.85;100.00;101482.84;2086907;28;20045;-74
2022/12/10 01:33:15;;;;;;;25.55;12.77;;;;;;;16.85;100.00;101472.19;2083688;28;20110;-74
2022/12/10 01:34:37;;;;;;;24.92;13.13;;;;;;;16.86;100.00;101469.53;2091170;28;20067;-73
2022/12/10 01:36:02;;;;;;;31.48;13.38;;;;;;;16.88;100.00;101470.41;2099841;28;20048;-73
2022/12/10 01:37:25;;;;;;;32.50;13.88;;;;;;;16.87;100.00;101467.75;2102399;28;20063;-73
2022/12/10 01:38:47;;;;;;;28.10;13.95;;;;;;;16.87;100.00;101467.75;2093374;28;20139;-72
2022/12/10 01:40:10;;;;;;;25.27;12.55;;;;;;;16.87;100.00;101463.28;2089443;28;20044;-72
2022/12/10 01:41:34;;;;;;;24.70;13.23;;;;;;;16.88;100.00;101461.50;2093302;28;20052;-73
2022/12/10 01:42:56;;;;;;;28.25;14.85;;;;;;;16.89;100.00;101463.28;2094596;28;20802;-73
2022/12/10 01:44:56;;;;;;;26.13;14.55;;;;;;;16.87;100.00;101454.44;2085038;28;20107;-72
2022/12/10 01:46:18;;;;;;;27.38;14.93;;;;;;;16.82;100.00;101454.41;2104602;28;20097;-72
2022/12/10 01:47:42;;;;;;;27.77;15.00;;;;;;;16.82;100.00;101449.06;2080421;28;20057;-71
2022/12/10 01:49:06;;;;;;;29.65;14.65;;;;;;;16.81;100.00;101446.38;2080965;28;20037;-72
2022/12/10 01:50:28;;;;;;;23.92;13.23;;;;;;;16.79;100.00;101459.75;2085534;28;20055;-72
2022/12/10 01:51:54;;;;;;;25.85;13.27;;;;;;;16.81;100.00;101465.06;2101513;28;20044;-72
2022/12/10 01:53:16;;;;;;;33.70;14.05;;;;;;;16.80;100.00;101455.31;2096207;28;20044;-71
2022/12/10 01:54:41;;;;;;;27.30;14.10;;;;;;;16.82;100.00;101464.16;2102054;28;20530;-72
2022/12/10 01:56:04;;;;;;;29.30;14.65;;;;;;;16.80;100.00;101461.53;2093881;28;20029;-72
2022/12/10 01:57:28;;;;;;;24.33;11.70;;;;;;;16.81;100.00;101465.06;2088003;28;20084;-71
2022/12/10 01:58:54;;;;;;;24.40;12.38;;;;;;;16.82;100.00;101461.50;2092081;28;20052;-71
2022/12/10 02:00:15;;;;;;;22.70;13.13;;;;;;;16.82;100.00;101462.41;2094587;28;20067;-72
2022/12/10 02:01:47;;;;;;;19.35;12.40;;;;;;;16.84;100.00;101452.63;2098421;28;20590;-72
2022/12/10 02:03:17;;;;;;;30.05;13.85;;;;;;;16.85;100.00;101440.19;2104090;28;20047;-71
2022/12/10 02:04:51;;;;;;;28.58;13.07;;;;;;;16.87;100.00;101439.28;2109953;28;20491;-72
2022/12/10 02:06:25;;;;;;;26.77;14.45;;;;;;;16.87;100.00;101428.63;2087869;28;20037;-72
2022/12/10 02:08:01;;;;;;;27.50;14.27;;;;;;;16.87;100.00;101431.28;2100832;28;20090;-71
2022/12/10 02:09:31;;;;;;;31.50;15.38;;;;;;;16.87;100.00;101422.41;2096827;28;20174;-72
2022/12/10 02:11:04;;;;;;;27.25;14.20;;;;;;;16.88;100.00;101416.16;2091821;28;20143;-72
2022/12/10 02:12:35;;;;;;;26.63;12.32;;;;;;;16.87;100.00;101419.75;2097120;28;20446;-72
2022/12/10 02:14:03;;;;;;;27.30;13.90;;;;;;;16.86;100.00;101415.31;2111815;28;20141;-72
2022/12/10 02:15:29;;;;;;;27.10;13.85;;;;;;;16.87;100.00;101417.94;2089126;28;20032;-71
2022/12/10 02:16:58;;;;;;;28.23;14.00;;;;;;;16.88;100.00;101422.41;2093484;28;20049;-72
2022/12/10 02:18:26;;;;;;;23.75;14.18;;;;;;;16.89;100.00;101417.94;2087490;28;20102;-72
2022/12/10 02:19:59;;;;;;;27.30;13.27;;;;;;;16.88;100.00;101427.72;2092742;28;20040;-71
2022/12/10 02:21:25;;;;;;;27.25;12.77;;;;;;;16.88;100.00;101425.06;2088540;28;20063;-72
2022/12/10 02:22:51;;;;;;;24.98;13.73;;;;;;;16.90;100.00;101414.41;2102335;28;20067;-71
2022/12/10 02:24:18;;;;;;;25.45;13.13;;;;;;;16.91;100.00;101425.06;2099594;28;20040;-73
2022/12/10 02:25:44;;;;;;;22.88;12.73;;;;;;;16.93;100.00;101420.66;2099798;28;20042;-72
2022/12/10 02:27:18;;;;;;;25.30;13.75;;;;;;;16.91;100.00;101417.06;2086635;28;20052;-73
2022/12/10 02:28:46;;;;;;;;;;;;;;;16.84;100.00;101409.97;2095620;28;20044;-73
2022/12/10 02:30:10;;;;;;;28.90;13.95;;;;;;;16.86;100.00;101407.31;2100514;28;19943;-73
2022/12/10 02:31:34;;;;;;;25.05;13.35;;;;;;;16.87;100.00;101409.09;2093342;28;20506;-73
2022/12/10 02:33:01;;;;;;;31.52;14.50;;;;;;;16.87;100.00;101412.59;2087048;28;20101;-73
2022/12/10 02:34:28;;;;;;;20.70;12.20;;;;;;;16.87;100.00;101401.09;2092503;28;20060;-73
2022/12/10 02:35:51;;;;;;;31.00;13.25;;;;;;;16.86;100.00;101402.88;2094812;28;20095;-73
2022/12/10 02:37:19;;;;;;;30.40;13.85;;;;;;;16.87;100.00;101385.94;2090480;28;20052;-73
2022/12/10 02:38:45;;;;;;;24.10;12.23;;;;;;;16.87;100.00;101391.28;2087627;28;20052;-73
2022/12/10 02:40:11;;;;;;;29.33;13.15;;;;;;;16.89;100.00;101380.63;2083044;28;20045;-73
2022/12/10 02:41:42;;;;;;;26.63;11.95;;;;;;;16.90;100.00;101377.97;2098028;28;20055;-74
2022/12/10 02:43:05;;;;;;;25.02;12.20;;;;;;;16.90;100.00;101379.72;2094765;28;20067;-73
2022/12/10 02:44:29;;;;;;;29.25;12.15;;;;;;;16.92;100.00;101380.63;2100923;28;20044;-73
2022/12/10 02:45:56;;;;;;;27.42;12.48;;;;;;;16.89;100.00;101384.16;2093904;28;20076;-73
2022/12/10 02:47:22;;;;;;;25.90;12.05;;;;;;;16.87;100.00;101383.28;2091248;28;20044;-73
2022/12/10 02:48:47;;;;;;;24.83;12.50;;;;;;;16.85;100.00;101376.19;2093268;28;20079;-73
2022/12/10 02:50:14;;;;;;;22.02;13.00;;;;;;;16.81;100.00;101372.59;2094076;28;20048;-73
2022/12/10 02:51:35;;;;;;;26.23;12.65;;;;;;;16.80;100.00;101369.97;2105587;28;20059;-74
2022/12/10 02:52:57;;;;;;;26.33;12.48;;;;;;;16.79;100.00;101365.53;2097557;28;20694;-73
2022/12/10 02:54:39;;;;;;;24.92;12.80;;;;;;;16.81;100.00;101356.59;2088953;28;20064;-73
2022/12/10 02:56:15;;;;;;;26.33;13.45;;;;;;;16.83;100.00;101364.63;2102550;28;20074;-73
2022/12/10 02:57:56;;;;;;;22.83;12.48;;;;;;;16.84;100.00;101366.41;2097751;28;20044;-73
2022/12/10 02:59:25;;;;;;;22.73;12.68;;;;;;;16.83;100.00;101359.28;2094766;28;20044;-72
2022/12/10 03:00:59;;;;;;;26.27;12.40;;;;;;;16.83;100.00;101357.50;2087517;28;20049;-73
2022/12/10 03:02:30;;;;;;;24.98;13.40;;;;;;;16.83;100.00;101359.28;2102301;28;20556;-73
2022/12/10 03:03:57;;;;;;;23.05;12.65;;;;;;;16.82;100.00;101366.41;2095585;28;20481;-73
2022/12/10 03:05:28;;;;;;;19.40;11.38;;;;;;;16.83;100.00;101359.28;2101281;28;20032;-73
2022/12/10 03:06:54;;;;;;;28.38;13.18;;;;;;;16.83;100.00;101362.84;2084684;28;20091;-71
2022/12/10 03:08:22;;;;;;;30.27;13.20;;;;;;;16.82;100.00;101355.72;2099021;28;20135;-73
2022/12/10 03:09:50;;;;;;;23.83;11.98;;;;;;;16.82;100.00;101360.16;2097331;28;20036;-72
2022/12/10 03:11:13;;;;;;;26.38;12.45;;;;;;;16.83;100.00;101364.63;2093748;28;20400;-72
2022/12/10 03:12:40;;;;;;;22.77;11.73;;;;;;;16.85;100.00;101369.06;2094495;28;20429;-72
2022/12/10 03:14:08;;;;;;;28.88;13.05;;;;;;;16.85;100.00;101370.84;2101621;28;20094;-72
2022/12/10 03:15:34;;;;;;;24.55;11.10;;;;;;;16.84;100.00;101371.72;2099211;28;20044;-72
2022/12/10 03:16:59;;;;;;;20.95;12.63;;;;;;;16.85;100.00;101366.41;2094954;28;20063;-73
2022/12/10 03:18:25;;;;;;;27.75;11.25;;;;;;;16.86;100.00;101370.84;2091982;28;20059;-72
2022/12/10 03:19:51;;;;;;;23.77;11.18;;;;;;;16.86;100.00;101369.97;2086858;28;20052;-73
2022/12/10 03:21:15;;;;;;;22.88;10.63;;;;;;;16.85;100.00;101365.50;2090724;28;20060;-73
2022/12/10 03:22:40;;;;;;;28.15;11.65;;;;;;;16.83;100.00;101365.50;2090924;28;20458;-73
2022/12/10 03:24:04;;;;;;;27.08;11.13;;;;;;;16.83;100.00;101362.84;2095906;28;20052;-73
2022/12/10 03:25:31;;;;;;;22.17;9.80;;;;;;;16.87;100.00;101361.06;2093589;28;20477;-72
2022/12/10 03:26:54;;;;;;;19.38;9.60;;;;;;;16.92;100.00;101364.63;2084853;28;20472;-73
2022/12/10 03:28:18;;;;;;;21.45;9.45;;;;;;;17.00;100.00;101358.38;2092023;28;20515;-73
2022/12/10 03:29:46;;;;;;;23.92;9.07;;;;;;;17.04;100.00;101345.94;2086232;28;20052;-72
2022/12/10 03:31:10;;;;;;;18.08;9.30;;;;;;;17.06;100.00;101355.72;2101832;28;20044;-73
2022/12/10 03:32:35;;;;;;;21.85;10.50;;;;;;;17.08;100.00;101361.03;2095384;28;20082;-74
2022/12/10 03:33:56;;;;;;;17.75;9.30;;;;;;;17.08;100.00;101363.69;2092498;28;20571;-72
2022/12/10 03:35:21;;;;;;;17.45;8.23;;;;;;;17.09;100.00;101366.38;2099980;28;20125;-72
2022/12/10 03:36:44;;;;;;;21.30;9.07;;;;;;;17.13;100.00;101369.94;2088420;28;20515;-72
2022/12/10 03:38:07;;;;;;;10.07;5.82;;;;;;;17.15;100.00;101381.47;2102189;28;20040;-71
2022/12/10 03:39:29;;;;;;;16.95;7.32;;;;;;;17.18;100.00;101383.28;2102741;28;20051;-72
2022/12/10 03:40:52;;;;;;;21.73;8.18;;;;;;;17.22;100.00;101377.91;2095645;28;20101;-72
2022/12/10 03:42:13;;;;;;;15.57;6.55;;;;;;;17.24;100.00;101384.16;2099865;28;20044;-72
2022/12/10 03:43:36;;;;;;;18.35;6.60;;;;;;;17.26;100.00;101376.16;2095617;28;20400;-71
2022/12/10 03:44:57;;;;;;;15.77;8.02;;;;;;;17.28;100.00;101391.25;2099663;28;20126;-72
2022/12/10 03:46:19;;;;;;;16.83;7.10;;;;;;;17.28;100.00;101393.03;2099427;28;20055;-71
2022/12/10 03:47:44;;;;;;;14.38;6.28;;;;;;;17.27;100.00;101393.91;2094218;28;20033;-72
2022/12/10 03:49:05;;;;;;;13.68;6.38;;;;;;;17.26;100.00;101405.50;2108869;28;20454;-71
2022/12/10 03:50:27;;;;;;;22.73;7.35;;;;;;;17.26;100.00;101400.16;2095476;28;20099;-71
2022/12/10 03:51:48;;;;;;;14.63;6.15;;;;;;;17.27;100.00;101396.56;2094917;28;20048;-71
2022/12/10 03:53:12;;;;;;;13.25;5.20;;;;;;;17.28;100.00;101401.03;2102419;28;20043;-72
2022/12/10 03:54:33;;;;;;;13.20;5.40;;;;;;;17.29;100.00;101405.47;2095624;28;20044;-72
2022/12/10 03:55:55;;;;;;;12.93;4.65;;;;;;;17.27;100.00;101413.47;2105521;28;20058;-72
2022/12/10 03:57:18;;;;;;;16.17;6.03;;;;;;;17.29;100.00;101422.38;2105179;28;20060;-71
2022/12/10 03:58:39;;;;;;;17.67;5.32;;;;;;;17.29;100.00;101424.16;2100868;28;20097;-72
2022/12/10 04:00:02;;;;;;;14.05;4.90;;;;;;;17.27;100.00;101433.94;2101168;28;20090;-73
2022/12/10 04:01:34;;;;;;;17.70;6.28;;;;;;;17.24;100.00;101437.53;2103846;28;20056;-72
2022/12/10 04:02:58;;;;;;;17.33;5.88;;;;;;;17.24;100.00;101441.97;2092279;28;20047;-72
2022/12/10 04:04:19;;;;;;;16.67;5.63;;;;;;;17.20;100.00;101435.72;2090556;28;20059;-72
2022/12/10 04:05:42;;;;;;;14.85;5.47;;;;;;;17.19;100.00;101438.41;2091391;28;20110;-73
2022/12/10 04:07:04;;;;;;;14.35;5.07;;;;;;;17.16;100.00;101435.75;2090081;28;20041;-72
2022/12/10 04:08:25;;;;;;;16.35;5.10;;;;;;;17.14;100.00;101441.97;2091786;28;20109;-72
2022/12/10 04:09:48;;;;;;;20.15;5.55;;;;;;;17.13;100.00;101436.66;2094568;28;20040;-72
2022/12/10 04:11:11;;;;;;;12.73;5.10;;;;;;;17.11;100.00;101435.75;2088338;28;20052;-73
2022/12/10 04:12:33;;;;;;;13.48;5.85;;;;;;;17.11;100.00;101435.75;2099933;28;20072;-74
2022/12/10 04:17:19;;;;;;;17.50;5.35;;;;;;;17.05;100.00;101431.31;2096652;28;20040;-74
2022/12/10 04:18:42;;;;;;;12.48;5.75;;;;;;;17.08;100.00;101427.72;2093732;28;20048;-73
2022/12/10 04:20:05;;;;;;;14.05;5.57;;;;;;;17.09;100.00;101429.50;2093526;28;20084;-73
2022/12/10 04:28:07;;;;;;;20.73;6.60;;;;;;;17.14;100.00;101441.06;2103480;28;20055;-73
2022/12/10 04:29:30;;;;;;;19.83;6.45;;;;;;;17.16;100.00;101455.31;2093887;28;20041;-73
2022/12/10 04:30:52;;;;;;;25.85;6.28;;;;;;;17.14;100.00;101449.97;2090984;28;20066;-74
2022/12/10 04:32:14;;;;;;;18.95;6.10;;;;;;;17.17;100.00;101454.41;2097885;28;20070;-74
2022/12/10 04:33:36;;;;;;;12.85;5.20;;;;;;;17.20;100.00;101445.53;2103129;28;20063;-73
2022/12/10 04:34:59;;;;;;;15.57;5.38;;;;;;;17.23;100.00;101449.09;2095728;28;20049;-73
2022/12/10 04:36:21;;;;;;;13.80;5.55;;;;;;;17.27;100.00;101453.50;2091050;28;20063;-73
2022/12/10 04:37:44;;;;;;;16.90;5.80;;;;;;;17.28;100.00;101455.28;2094154;28;20048;-73
2022/12/10 04:39:05;;;;;;;17.35;5.80;;;;;;;17.26;100.00;101445.53;2089585;28;20055;-74
2022/12/10 04:40:28;;;;;;;19.58;6.38;;;;;;;17.26;100.00;101448.19;2097411;28;20135;-74
2022/12/10 04:41:51;;;;;;;16.95;5.40;;;;;;;17.25;100.00;101441.97;2100945;28;20994;-74
2022/12/10 04:43:13;;;;;;;12.68;4.82;;;;;;;17.28;100.00;101443.72;2102545;28;20052;-73
2022/12/10 04:44:36;;;;;;;13.60;4.97;;;;;;;17.29;100.00;101441.06;2093545;28;20049;-74
2022/12/10 04:45:58;;;;;;;15.70;4.53;;;;;;;17.31;100.00;101447.31;2097907;28;20056;-73
2022/12/10 04:47:20;;;;;;;18.38;5.13;;;;;;;17.32;100.00;101445.53;2101941;28;20055;-73
2022/12/10 04:48:41;;;;;;;18.13;6.05;;;;;;;17.31;100.00;101449.97;2095681;28;20053;-73
2022/12/10 04:50:06;;;;;;;13.02;4.20;;;;;;;17.29;100.00;101445.50;2091042;28;20160;-73
2022/12/10 04:51:27;;;;;;;15.57;4.60;;;;;;;17.29;100.00;101448.19;2099032;28;20415;-73
2022/12/10 04:52:50;;;;;;;22.45;5.70;;;;;;;17.30;100.00;101447.28;2099812;28;20044;-73
2022/12/10 04:54:11;;;;;;;17.42;5.22;;;;;;;17.28;100.00;101444.63;2101681;28;20056;-73
2022/12/10 04:55:34;;;;;;;20.23;5.82;;;;;;;17.25;100.00;101451.75;2097578;28;20096;-73
2022/12/10 04:56:55;;;;;;;23.02;6.35;;;;;;;17.23;100.00;101442.84;2093978;28;20055;-73
2022/12/10 04:58:18;;;;;;;19.80;7.93;;;;;;;17.20;100.00;101446.41;2101212;28;20054;-73
2022/12/10 04:59:40;;;;;;;17.40;7.63;;;;;;;17.19;100.00;101449.09;2079864;28;20065;-73
2022/12/10 05:01:04;;;;;;;21.00;11.63;;;;;;;17.17;100.00;101459.75;2087768;28;20040;-73
2022/12/10 05:02:26;;;;;;;29.40;18.67;;;;;;;17.14;100.00;101455.28;2096082;28;20051;-73
2022/12/10 05:03:47;;;;;;;30.23;19.50;;;;;;;17.12;100.00;101454.44;2102064;28;20044;-74
2022/12/10 05:05:12;;;;;;;32.80;21.02;;;;;;;17.11;100.00;101451.75;2096088;28;20469;-73
2022/12/10 05:06:34;;;;;;;22.48;14.82;;;;;;;17.08;100.00;101447.31;2099921;28;20043;-73
2022/12/10 05:07:56;;;;;;;21.05;7.97;;;;;;;17.08;100.00;101447.31;2096009;28;20047;-73
2022/12/10 05:09:19;;;;;;;21.40;6.57;;;;;;;17.09;100.00;101453.53;2107844;28;20047;-73
2022/12/10 05:10:40;;;;;;;15.50;7.22;;;;;;;17.10;100.00;101453.53;2092826;28;20056;-73
2022/12/10 05:12:02;;;;;;;21.30;9.43;;;;;;;17.11;100.00;101449.97;2097331;28;20041;-73
2022/12/10 05:13:24;;;;;;;20.27;9.32;;;;;;;17.11;100.00;101454.44;2093843;28;20739;-73
2022/12/10 05:14:47;;;;;;;13.73;6.72;;;;;;;17.08;100.00;101455.31;2093581;28;20104;-73
2022/12/10 05:16:11;;;;;;;15.77;6.47;;;;;;;17.08;100.00;101462.41;2087204;28;20139;-73
2022/12/10 05:17:34;;;;;;;19.05;8.88;;;;;;;17.08;100.00;101459.75;2090415;28;20064;-73
2022/12/10 05:18:56;;;;;;;14.95;7.32;;;;;;;17.07;100.00;101474.88;2097427;28;20039;-73
2022/12/10 05:20:20;;;;;;;18.67;9.20;;;;;;;17.09;100.00;101480.22;2101933;28;20059;-73
2022/12/10 05:23:30;;;;;;;30.95;20.33;;;;;;;17.10;100.00;101493.56;2097202;28;20078;-74
2022/12/10 05:24:52;;;;;;;33.67;24.10;;;;;;;17.11;100.00;101494.44;2094657;28;20082;-73
2022/12/10 05:26:17;;;;;;;36.85;25.00;;;;;;;17.11;100.00;101491.78;2093538;28;20427;-75
2022/12/10 05:27:40;;;;;;;41.42;28.35;;;;;;;17.11;100.00;101486.44;2090348;28;20048;-73
2022/12/10 05:29:02;;;;;;;41.53;23.58;;;;;;;17.10;100.00;101484.66;2090191;28;20052;-74
2022/12/10 05:30:24;;;;;;;35.90;24.33;;;;;;;17.11;100.00;101479.31;2100317;28;20059;-74
2022/12/10 05:31:46;;;;;;;24.88;13.52;;;;;;;17.11;100.00;101475.78;2093667;28;20052;-73
2022/12/10 05:33:07;;;;;;;21.02;12.38;;;;;;;17.14;100.00;101476.66;2098140;28;20066;-74
2022/12/10 05:34:30;;;;;;;34.67;20.50;;;;;;;17.17;100.00;101472.22;2085190;28;20080;-74
2022/12/10 05:35:58;;;;;;;19.52;8.88;;;;;;;17.17;100.00;101470.44;2089494;28;20040;-74
2022/12/10 05:37:20;;;;;;;19.38;7.15;;;;;;;17.17;100.00;101467.75;2094372;28;20052;-73
2022/12/10 05:38:41;;;;;;;19.50;6.82;;;;;;;17.19;100.00;101468.66;2093603;28;20131;-74
2022/12/10 05:40:05;;;;;;;18.63;5.85;;;;;;;17.19;100.00;101463.31;2099411;28;20090;-73
2022/12/10 05:41:28;;;;;;;22.70;7.13;;;;;;;17.20;100.00;101466.88;2087181;28;20095;-73
2022/12/10 05:42:51;;;;;;;20.25;6.50;;;;;;;17.21;100.00;101466.84;2084306;28;20045;-73
2022/12/10 05:44:13;;;;;;;21.95;6.32;;;;;;;17.20;100.00;101473.09;2092857;28;20060;-74
2022/12/10 05:45:34;;;;;;;10.85;4.80;;;;;;;17.20;100.00;101466.88;2103520;28;20048;-73
2022/12/10 05:46:57;;;;;;;17.40;6.00;;;;;;;17.20;100.00;101477.56;2093294;28;20389;-74
2022/12/10 05:48:18;;;;;;;16.33;6.63;;;;;;;17.21;100.00;101474.88;2101978;28;20477;-74
2022/12/10 05:49:40;;;;;;;18.35;8.73;;;;;;;17.22;100.00;101470.41;2093323;28;20048;-73
2022/12/10 05:51:06;;;;;;;25.65;11.27;;;;;;;17.24;100.00;101468.66;2092596;28;20025;-73
2022/12/10 05:52:29;;;;;;;36.30;24.88;;;;;;;17.23;100.00;101470.44;2095568;28;20056;-72
2022/12/10 05:53:51;;;;;;;35.08;26.48;;;;;;;17.25;100.00;101476.66;2091218;28;20067;-73
2022/12/10 05:55:13;;;;;;;49.00;35.25;;;;;;;17.25;100.00;101466.00;2094174;28;20115;-73
2022/12/10 05:56:37;;;;;;;58.33;48.85;;;;;;;17.26;100.00;101467.78;2089301;28;20053;-74
2022/12/10 05:57:59;;;;;;;68.00;55.30;;;;;;;17.27;100.00;101460.63;2097671;28;20040;-73
2022/12/10 05:59:21;;;;;;;89.93;74.45;;;;;;;17.27;100.00;101463.28;2095652;28;20040;-73
2022/12/10 06:00:44;;;;;;;84.78;74.72;;;;;;;17.28;100.00;101467.75;2100015;28;20104;-73
2022/12/10 06:02:05;;;;;;;91.03;80.32;;;;;;;17.29;100.00;101465.09;2093850;28;20802;-73
2022/12/10 06:03:28;;;;;;;86.75;75.60;;;;;;;17.31;100.00;101465.09;2096663;28;20051;-73
2022/12/10 06:04:51;;;;;;;71.90;60.85;;;;;;;17.31;100.00;101460.66;2093944;28;20076;-73
2022/12/10 06:06:17;;;;;;;68.40;57.35;;;;;;;17.34;100.00;101463.28;2088952;28;20055;-73
2022/12/10 06:07:39;;;;;;;45.10;37.28;;;;;;;17.35;100.00;101456.19;2092941;28;20090;-74
2022/12/10 06:09:02;;;;;;;49.40;38.70;;;;;;;17.36;100.00;101457.97;2098939;28;20036;-74
2022/12/10 06:10:23;;;;;;;50.40;38.60;;;;;;;17.38;100.00;101456.19;2096954;28;20128;-73
2022/12/10 06:11:46;;;;;;;46.88;34.97;;;;;;;17.42;100.00;101445.50;2091335;28;20052;-73
2022/12/10 06:13:07;;;;;;;33.67;22.50;;;;;;;17.47;100.00;101443.69;2108345;28;20585;-73
2022/12/10 06:14:29;;;;;;;21.33;10.93;;;;;;;17.56;100.00;101437.47;2094881;28;20041;-73
2022/12/10 06:15:50;;;;;;;26.20;13.38;;;;;;;17.67;100.00;101435.69;2102681;28;20423;-73
2022/12/10 06:17:13;;;;;;;22.83;12.10;;;;;;;17.78;100.00;101431.22;2093329;28;20639;-73
2022/12/10 06:18:34;;;;;;;24.70;9.57;;;;;;;17.88;100.00;101416.91;2092024;28;20048;-73
2022/12/10 06:19:57;;;;;;;12.05;4.47;;;;;;;17.98;100.00;101433.81;2091641;28;20048;-73
2022/12/10 06:21:20;;;;;;;9.23;2.80;;;;;;;18.10;100.00;101424.84;2091388;28;20075;-73
2022/12/10 06:22:43;;;;;;;14.63;3.78;;;;;;;18.19;100.00;101406.97;2101044;28;20091;-74
2022/12/10 06:24:04;;;;;;;19.38;3.90;;;;;;;18.28;100.00;101411.38;2103575;28;20581;-73
2022/12/10 06:25:27;;;;;;;13.13;4.05;;;;;;;18.36;100.00;101404.22;2099420;28;20135;-73
2022/12/10 06:26:48;;;;;;;16.58;2.78;;;;;;;18.47;100.00;101406.81;2092034;28;20049;-73
2022/12/10 06:28:11;;;;;;;15.60;3.00;;;;;;;18.54;100.00;101392.50;2099683;28;20553;-74
2022/12/10 06:29:34;;;;;;;24.02;5.13;;;;;;;18.64;100.00;101396.94;2095028;28;20570;-74
2022/12/10 06:30:59;;;;;;;16.48;3.80;;;;;;;18.72;100.00;101389.72;2092919;28;20044;-73